Terminal Aerodrome Forecast
Issued by NWS

Home | Current Version | Previous Version | Text Only | Print | Product List | Glossary On
Versions: 1 2 3 4 5 6 7 8 9 10 11 12 13 14 15 16 17 18 19 20 21 22
764
FTUS45 KPIH 190520
TAFSUN
TAF
KSUN 190520Z 1906/2012 31008KT P6SM SCT040 SCT130
     FM191900 16006KT P6SM BKN200
     FM200300 31006KT P6SM FEW060 BKN120
      AMD LTD TO CLD VIS AND WIND TIL 191300=

USA.gov is the U.S. government's official web portal to all federal, state and local government web resources and services.